MSC Maria Saveria — 3FLE8 — position and weather

sailwx.info

Track history (hours):
 
Tides and Currents Weather Stations Pressure Air Temp Water Temp Dewpoint Dewpoint Depression Visibility Wind Speed Wind Dir Waves Ship Positions

MSC Maria Saveria

Last reported at 2014-Sep-17 08:32 UTC. Time now 2014-Oct-02 10:26 UTC.
Position N 01°12' E 103°33'.
Warning: this ship's position is 15 days out of date.

Length 366 m; draft 14.5 m.

Type: Ship (hazmat cat A). MMSI: 372400000.

Date/timePositionNaut miles runAvg speedWind from/ knotsBaromVisibWave heightAir tempDewpointWater temp
2014-Sep-17 08:32N 01°12' E 103°33'1212.1
2014-Sep-17 07:33N 01°16' E 103°45'1 1.2
2014-Sep-17 06:31N 01°16' E 103°46'0 0.0
2014-Sep-17 05:28N 01°16' E 103°46'0 0.0
2014-Sep-17 04:31N 01°16' E 103°46'0 0.0
2014-Sep-17 03:31N 01°16' E 103°46'0 0.0
2014-Sep-17 02:31N 01°16' E 103°46'0 0.0
2014-Sep-17 01:31N 01°16' E 103°46'0 0.0
2014-Sep-17 00:31N 01°16' E 103°46'0 0.0
2014-Sep-16 23:31N 01°16' E 103°46'0 0.0
2014-Sep-16 22:28N 01°16' E 103°46'0 0.0
2014-Sep-16 21:31N 01°16' E 103°46'0 0.0
2014-Sep-16 20:31N 01°16' E 103°46'0 0.0
2014-Sep-16 19:31N 01°16' E 103°46'0 0.0
2014-Sep-16 18:31N 01°16' E 103°46'0 0.0
2014-Sep-16 17:31N 01°16' E 103°46'0 0.0
2014-Sep-16 16:25N 01°16' E 103°46'0 0.0
2014-Sep-16 15:31N 01°16' E 103°46'0 0.0
2014-Sep-16 14:31N 01°16' E 103°46'0 0.0
2014-Sep-16 13:22N 01°16' E 103°46'0 0.0
2014-Sep-16 12:31N 01°16' E 103°46'0 0.0
2014-Sep-16 11:33N 01°16' E 103°46'1 1.3
2014-Sep-16 10:33N 01°15' E 103°47'5 4.7
2014-Sep-16 09:33N 01°12' E 103°50'7 6.8
2014-Sep-16 08:33N 01°14' E 103°57'11 9.7
2014-Sep-16 07:27N 01°17' E 104°07'  
2014-Sep-12 08:06N 23°59' E 119°56'34318.5
2014-Sep-11 13:33N 28°56' E 123°08'1918.8
2014-Sep-11 12:33N 29°14' E 123°16'2319.2
2014-Sep-11 11:22N 29°36' E 123°23'1620.0
2014-Sep-11 10:33N 29°51' E 123°19'2120.1
2014-Sep-11 09:32N 30°09' E 123°06'2020.8
2014-Sep-11 08:33N 30°24' E 122°50'1919.2
2014-Sep-11 07:33N 30°30' E 122°29'1514.8
2014-Sep-11 06:34N 30°33' E 122°13'6 0.4
2014-Sep-10 16:29N 30°36' E 122°06'1010.4
2014-Sep-10 15:33N 30°33' E 122°16'1312.5
2014-Sep-10 14:33N 30°33' E 122°31'5 5.5
2014-Sep-10 13:33N 30°30' E 122°36'6 3.1
2014-Sep-10 11:33N 30°26' E 122°42'0 0.1
2014-Sep-10 09:21N 30°26' E 122°42'0 0.2
2014-Sep-10 08:33N 30°26' E 122°42'9 8.8
2014-Sep-10 07:33N 30°19' E 122°48'1313.0
2014-Sep-10 06:33N 30°06' E 122°49'1414.3
2014-Sep-10 05:33N 29°52' E 122°43'1616.2
2014-Sep-10 04:33N 29°43' E 122°28'1212.5
2014-Sep-10 03:33N 29°48' E 122°15'1110.9
2014-Sep-10 02:34N 29°55' E 122°05'3 2.0
2014-Sep-10 01:03N 29°54' E 122°02'0 0.0
2014-Sep-10 00:03N 29°54' E 122°02'0 0.0
2014-Sep-09 23:15N 29°54' E 122°02'0 0.0
2014-Sep-09 22:27N 29°54' E 122°02'0 0.0
2014-Sep-09 21:09N 29°54' E 122°02'0 0.0
2014-Sep-09 20:09N 29°54' E 122°02'0 0.0
2014-Sep-09 19:15N 29°54' E 122°02'0 0.0
2014-Sep-09 18:27N 29°54' E 122°02'0 0.0
2014-Sep-09 17:21N 29°54' E 122°02'0 0.0
2014-Sep-09 16:21N 29°54' E 122°02'0 0.0
2014-Sep-09 15:27N 29°54' E 122°02'0 0.0
2014-Sep-09 14:03N 29°54' E 122°02'0 0.0
2014-Sep-09 12:09N 29°54' E 122°02'0 0.0
2014-Sep-09 10:33N 29°54' E 122°02'0 0.0
2014-Sep-09 09:15N 29°54' E 122°02'0 0.0
2014-Sep-09 07:15N 29°54' E 122°02'0 0.0
2014-Sep-09 06:33N 29°54' E 122°02'0 0.0
2014-Sep-09 04:27N 29°54' E 122°02'0 0.0
2014-Sep-09 03:27N 29°54' E 122°02'2 2.2
2014-Sep-09 02:33N 29°54' E 122°04'1110.8
2014-Sep-09 01:33N 29°48' E 122°15'8 8.6
2014-Sep-09 00:33N 29°44' E 122°23'1211.8
2014-Sep-08 23:33N 29°42' E 122°37'1414.1
2014-Sep-08 22:33N 29°52' E 122°48'1918.8
2014-Sep-08 21:31N 30°07' E 123°03'1818.3
2014-Sep-08 20:32N 30°19' E 123°18'4418.8
2014-Sep-08 18:12N 30°52' E 123°52'34316.6
2014-Sep-07 21:32N 35°56' E 120°43'1515.6
2014-Sep-07 20:33N 36°00' E 120°24'9 9.1
2014-Sep-07 19:33N 36°01' E 120°13'1 1.0
2014-Sep-07 18:29N 36°00' E 120°12'0 0.0
2014-Sep-07 15:05N 36°00' E 120°12'0 0.0
2014-Sep-07 14:23N 36°00' E 120°12'0 0.0
2014-Sep-07 12:10N 36°00' E 120°12'0 0.0
2014-Sep-07 10:11N 36°00' E 120°12'0 0.0
2014-Sep-07 09:23N 36°00' E 120°12'  
Track history (hours):
 
Tides and Currents Weather Stations Pressure Air Temp Water Temp Dewpoint Dewpoint Depression Visibility Wind Speed Wind Dir Waves Ship Positions

MSC Maria Saveria

Last reported at 2014-Sep-17 08:32 UTC. Time now 2014-Oct-02 10:26 UTC.
Position N 01°12' E 103°33'.
Warning: this ship's position is 15 days out of date.

Length 366 m; draft 14.5 m.

Type: Ship (hazmat cat A). MMSI: 372400000.

Date/timePositionNaut miles runAvg speedWind from/ knotsBaromVisibWave heightAir tempDewpointWater temp
2014-Sep-17 08:32N 01°12' E 103°33'1212.1
2014-Sep-17 07:33N 01°16' E 103°45'1 1.2
2014-Sep-17 06:31N 01°16' E 103°46'0 0.0
2014-Sep-17 05:28N 01°16' E 103°46'0 0.0
2014-Sep-17 04:31N 01°16' E 103°46'0 0.0
2014-Sep-17 03:31N 01°16' E 103°46'0 0.0
2014-Sep-17 02:31N 01°16' E 103°46'0 0.0
2014-Sep-17 01:31N 01°16' E 103°46'0 0.0
2014-Sep-17 00:31N 01°16' E 103°46'0 0.0
2014-Sep-16 23:31N 01°16' E 103°46'0 0.0
2014-Sep-16 22:28N 01°16' E 103°46'0 0.0
2014-Sep-16 21:31N 01°16' E 103°46'0 0.0
2014-Sep-16 20:31N 01°16' E 103°46'0 0.0
2014-Sep-16 19:31N 01°16' E 103°46'0 0.0
2014-Sep-16 18:31N 01°16' E 103°46'0 0.0
2014-Sep-16 17:31N 01°16' E 103°46'0 0.0
2014-Sep-16 16:25N 01°16' E 103°46'0 0.0
2014-Sep-16 15:31N 01°16' E 103°46'0 0.0
2014-Sep-16 14:31N 01°16' E 103°46'0 0.0
2014-Sep-16 13:22N 01°16' E 103°46'0 0.0
2014-Sep-16 12:31N 01°16' E 103°46'0 0.0
2014-Sep-16 11:33N 01°16' E 103°46'1 1.3
2014-Sep-16 10:33N 01°15' E 103°47'5 4.7
2014-Sep-16 09:33N 01°12' E 103°50'7 6.8
2014-Sep-16 08:33N 01°14' E 103°57'11 9.7
2014-Sep-16 07:27N 01°17' E 104°07'  
2014-Sep-12 08:06N 23°59' E 119°56'34318.5
2014-Sep-11 13:33N 28°56' E 123°08'1918.8
2014-Sep-11 12:33N 29°14' E 123°16'2319.2
2014-Sep-11 11:22N 29°36' E 123°23'1620.0
2014-Sep-11 10:33N 29°51' E 123°19'2120.1
2014-Sep-11 09:32N 30°09' E 123°06'2020.8
2014-Sep-11 08:33N 30°24' E 122°50'1919.2
2014-Sep-11 07:33N 30°30' E 122°29'1514.8
2014-Sep-11 06:34N 30°33' E 122°13'6 0.4
2014-Sep-10 16:29N 30°36' E 122°06'1010.4
2014-Sep-10 15:33N 30°33' E 122°16'1312.5
2014-Sep-10 14:33N 30°33' E 122°31'5 5.5
2014-Sep-10 13:33N 30°30' E 122°36'6 3.1
2014-Sep-10 11:33N 30°26' E 122°42'0 0.1
2014-Sep-10 09:21N 30°26' E 122°42'0 0.2
2014-Sep-10 08:33N 30°26' E 122°42'9 8.8
2014-Sep-10 07:33N 30°19' E 122°48'1313.0
2014-Sep-10 06:33N 30°06' E 122°49'1414.3
2014-Sep-10 05:33N 29°52' E 122°43'1616.2
2014-Sep-10 04:33N 29°43' E 122°28'1212.5
2014-Sep-10 03:33N 29°48' E 122°15'1110.9
2014-Sep-10 02:34N 29°55' E 122°05'3 2.0
2014-Sep-10 01:03N 29°54' E 122°02'0 0.0
2014-Sep-10 00:03N 29°54' E 122°02'0 0.0
2014-Sep-09 23:15N 29°54' E 122°02'0 0.0
2014-Sep-09 22:27N 29°54' E 122°02'0 0.0
2014-Sep-09 21:09N 29°54' E 122°02'0 0.0
2014-Sep-09 20:09N 29°54' E 122°02'0 0.0
2014-Sep-09 19:15N 29°54' E 122°02'0 0.0
2014-Sep-09 18:27N 29°54' E 122°02'0 0.0
2014-Sep-09 17:21N 29°54' E 122°02'0 0.0
2014-Sep-09 16:21N 29°54' E 122°02'0 0.0
2014-Sep-09 15:27N 29°54' E 122°02'0 0.0
2014-Sep-09 14:03N 29°54' E 122°02'0 0.0
2014-Sep-09 12:09N 29°54' E 122°02'0 0.0
2014-Sep-09 10:33N 29°54' E 122°02'0 0.0
2014-Sep-09 09:15N 29°54' E 122°02'0 0.0
2014-Sep-09 07:15N 29°54' E 122°02'0 0.0
2014-Sep-09 06:33N 29°54' E 122°02'0 0.0
2014-Sep-09 04:27N 29°54' E 122°02'0 0.0
2014-Sep-09 03:27N 29°54' E 122°02'2 2.2
2014-Sep-09 02:33N 29°54' E 122°04'1110.8
2014-Sep-09 01:33N 29°48' E 122°15'8 8.6
2014-Sep-09 00:33N 29°44' E 122°23'1211.8
2014-Sep-08 23:33N 29°42' E 122°37'1414.1
2014-Sep-08 22:33N 29°52' E 122°48'1918.8
2014-Sep-08 21:31N 30°07' E 123°03'1818.3
2014-Sep-08 20:32N 30°19' E 123°18'4418.8
2014-Sep-08 18:12N 30°52' E 123°52'34316.6
2014-Sep-07 21:32N 35°56' E 120°43'1515.6
2014-Sep-07 20:33N 36°00' E 120°24'9 9.1
2014-Sep-07 19:33N 36°01' E 120°13'1 1.0
2014-Sep-07 18:29N 36°00' E 120°12'0 0.0
2014-Sep-07 15:05N 36°00' E 120°12'0 0.0
2014-Sep-07 14:23N 36°00' E 120°12'0 0.0
2014-Sep-07 12:10N 36°00' E 120°12'0 0.0
2014-Sep-07 10:11N 36°00' E 120°12'0 0.0
2014-Sep-07 09:23N 36°00' E 120°12'  

Dump ship's entire track history